createdAt,value
2023-04-16T00:00:51.971Z,52.37
2023-04-16T00:03:18.237Z,51.57
2023-04-16T00:05:45.169Z,50.37
2023-04-16T00:08:11.366Z,50.23
2023-04-16T00:10:37.492Z,60.67
2023-04-16T00:13:03.614Z,61.07
2023-04-16T00:15:29.766Z,58.80
2023-04-16T00:17:55.941Z,56.83
2023-04-16T00:20:22.133Z,58.30
2023-04-16T00:22:48.904Z,63.93
2023-04-16T00:25:15.248Z,56.47
2023-04-16T00:27:41.401Z,52.57
2023-04-16T00:30:08.368Z,59.37
2023-04-16T00:32:34.508Z,57.90
2023-04-16T00:35:00.632Z,66.20
2023-04-16T00:37:26.936Z,59.87
2023-04-16T00:39:53.678Z,61.30
2023-04-16T00:42:19.790Z,58.10
2023-04-16T00:44:46.190Z,57.27
2023-04-16T00:47:12.347Z,56.80
2023-04-16T00:49:39.080Z,61.73
2023-04-16T00:52:05.385Z,68.40
2023-04-16T00:54:31.921Z,62.50
2023-04-16T00:56:59.264Z,69.47
2023-04-16T00:59:25.818Z,56.00
2023-04-16T01:01:52.020Z,67.57
2023-04-16T01:04:18.314Z,59.10
2023-04-16T01:06:44.788Z,63.20
2023-04-16T01:09:11.423Z,64.53
2023-04-16T01:11:37.682Z,64.43
2023-04-16T01:14:04.590Z,57.83
2023-04-16T01:16:31.880Z,71.40
2023-04-16T01:18:58.005Z,63.20
2023-04-16T01:21:25.038Z,67.13
2023-04-16T01:23:51.177Z,71.17
2023-04-16T01:26:17.287Z,69.63
2023-04-16T01:28:43.406Z,75.20
2023-04-16T01:31:09.599Z,58.57
2023-04-16T01:33:35.753Z,62.27
2023-04-16T01:36:01.926Z,60.53
2023-04-16T01:38:28.784Z,65.43
2023-04-16T01:40:56.750Z,59.20
2023-04-16T01:43:22.982Z,55.47
2023-04-16T01:45:49.096Z,49.40
2023-04-16T01:48:15.416Z,39.37
2023-04-16T01:50:41.672Z,49.33
2023-04-16T01:53:08.862Z,50.63
2023-04-16T01:55:35.856Z,42.57
2023-04-16T01:58:01.987Z,46.63
2023-04-16T02:00:28.368Z,47.60
2023-04-16T02:02:54.667Z,47.43
2023-04-16T02:05:20.876Z,54.83
2023-04-16T02:07:47.029Z,61.23
2023-04-16T02:10:14.161Z,60.83
2023-04-16T02:12:41.008Z,66.67
2023-04-16T02:15:08.113Z,68.77
2023-04-16T02:17:34.314Z,62.80
2023-04-16T02:20:02.847Z,63.13
2023-04-16T02:22:28.986Z,62.87
2023-04-16T02:24:55.094Z,61.83
2023-04-16T02:27:21.476Z,57.80
2023-04-16T02:29:48.247Z,61.43
2023-04-16T02:32:14.531Z,81.03
2023-04-16T02:34:41.824Z,70.80
2023-04-16T02:37:07.988Z,82.43
2023-04-16T02:39:34.256Z,78.93
2023-04-16T02:42:01.768Z,80.97
2023-04-16T02:44:27.906Z,73.63
2023-04-16T02:46:54.667Z,81.93
2023-04-16T02:49:20.782Z,70.07
2023-04-16T02:51:46.943Z,75.93
2023-04-16T02:54:13.066Z,81.63
2023-04-16T02:56:39.200Z,74.30
2023-04-16T02:59:05.486Z,89.80
2023-04-16T03:01:31.686Z,83.67
2023-04-16T03:03:58.563Z,82.30
2023-04-16T03:06:25.416Z,86.77
2023-04-16T03:08:51.541Z,86.93
2023-04-16T03:11:17.738Z,88.47
2023-04-16T03:13:43.985Z,89.07
2023-04-16T03:16:10.223Z,81.43
2023-04-16T03:18:36.407Z,87.13
2023-04-16T03:21:04.083Z,83.60
2023-04-16T03:23:30.233Z,90.63
2023-04-16T03:25:56.345Z,91.23
2023-04-16T03:28:22.456Z,82.90
2023-04-16T03:30:52.272Z,85.53
2023-04-16T03:33:18.459Z,86.03
2023-04-16T03:35:44.576Z,87.93
2023-04-16T03:38:11.657Z,87.73
2023-04-16T03:40:38.581Z,83.40
2023-04-16T03:43:04.717Z,81.37
2023-04-16T03:45:30.822Z,86.63
2023-04-16T03:47:57.080Z,83.50
2023-04-16T03:50:23.218Z,93.17
2023-04-16T03:52:49.347Z,93.83
2023-04-16T03:55:16.459Z,90.60
2023-04-16T03:57:42.683Z,84.13
2023-04-16T04:00:09.533Z,95.63
2023-04-16T04:02:35.741Z,89.90
2023-04-16T04:05:02.330Z,81.57
2023-04-16T04:07:28.548Z,87.00
2023-04-16T04:09:54.894Z,97.60
2023-04-16T04:12:21.657Z,85.07
2023-04-16T04:14:47.747Z,81.83
2023-04-16T04:17:13.879Z,87.63
2023-04-16T04:19:47.023Z,83.47
2023-04-16T04:22:16.956Z,84.03
2023-04-16T04:24:43.103Z,87.93
2023-04-16T04:27:09.220Z,89.77
2023-04-16T04:29:36.020Z,92.77
2023-04-16T04:32:02.333Z,96.57
2023-04-16T04:34:28.614Z,93.47
2023-04-16T04:36:54.846Z,86.73
2023-04-16T04:39:21.204Z,91.93
2023-04-16T04:41:47.423Z,93.03
2023-04-16T04:44:13.593Z,96.10
2023-04-16T04:46:40.438Z,96.77
2023-04-16T04:49:06.777Z,94.80
2023-04-16T04:51:32.911Z,99.17
2023-04-16T04:53:59.040Z,91.33
2023-04-16T04:56:25.471Z,97.33
2023-04-16T04:58:51.580Z,98.53
2023-04-16T05:01:17.910Z,98.67
2023-04-16T05:03:44.796Z,91.87
2023-04-16T05:06:10.982Z,104.07
2023-04-16T05:08:37.125Z,92.03
2023-04-16T05:11:03.352Z,100.67
2023-04-16T05:13:29.458Z,96.40
2023-04-16T05:15:55.731Z,96.40
2023-04-16T05:18:21.844Z,97.40
2023-04-16T05:20:48.747Z,93.30
2023-04-16T05:23:15.184Z,102.70
2023-04-16T05:25:41.422Z,101.77
2023-04-16T05:28:07.543Z,103.13
2023-04-16T05:30:33.670Z,104.20
2023-04-16T05:32:59.946Z,106.50
2023-04-16T05:35:26.910Z,110.83
2023-04-16T05:37:53.660Z,97.53
2023-04-16T05:40:20.144Z,107.80
2023-04-16T05:42:46.269Z,105.90
2023-04-16T05:45:12.384Z,112.63
2023-04-16T05:47:38.640Z,99.53
2023-04-16T05:50:05.870Z,93.20
2023-04-16T05:52:32.082Z,96.30
2023-04-16T05:55:00.636Z,89.93
2023-04-16T05:57:27.230Z,89.70
2023-04-16T05:59:53.377Z,88.67
2023-04-16T06:02:19.689Z,85.83
2023-04-16T06:04:45.897Z,84.40
2023-04-16T06:07:12.006Z,85.27
2023-04-16T06:09:38.905Z,83.53
2023-04-16T06:12:05.901Z,97.03
2023-04-16T06:14:32.151Z,87.30
2023-04-16T06:16:58.306Z,106.97
2023-04-16T06:19:24.469Z,99.33
2023-04-16T06:21:50.677Z,87.97
2023-04-16T06:24:17.665Z,89.43
2023-04-16T06:26:44.003Z,91.80
2023-04-16T06:29:11.683Z,91.23
2023-04-16T06:31:37.967Z,92.03
2023-04-16T06:34:04.200Z,98.77
2023-04-16T06:36:30.654Z,85.37
2023-04-16T06:38:56.888Z,86.07
2023-04-16T06:41:24.911Z,86.13
2023-04-16T06:43:51.036Z,92.07
2023-04-16T06:46:17.810Z,84.60
2023-04-16T06:48:43.966Z,87.63
2023-04-16T06:51:10.897Z,79.40
2023-04-16T06:53:37.027Z,75.87
2023-04-16T06:56:03.507Z,66.57
2023-04-16T06:58:29.601Z,72.07
2023-04-16T07:00:55.760Z,69.07
2023-04-16T07:03:22.690Z,62.50
2023-04-16T07:05:48.966Z,60.13
2023-04-16T07:08:15.110Z,56.90
2023-04-16T07:10:41.413Z,57.70
2023-04-16T07:13:08.508Z,62.63
2023-04-16T07:15:34.691Z,59.83
2023-04-16T07:18:01.312Z,49.67
2023-04-16T07:20:28.129Z,51.30
2023-04-16T07:22:54.255Z,54.17
2023-04-16T07:25:20.442Z,47.50
2023-04-16T07:27:46.961Z,46.43
2023-04-16T07:30:13.079Z,47.13
2023-04-16T07:32:39.309Z,42.30
2023-04-16T07:35:06.392Z,46.40
2023-04-16T07:37:33.251Z,45.63
2023-04-16T07:39:59.934Z,43.17
2023-04-16T07:42:27.036Z,44.17
2023-04-16T07:44:53.454Z,46.33
2023-04-16T07:47:19.712Z,47.23
2023-04-16T07:49:45.825Z,49.13
2023-04-16T07:52:12.711Z,45.93
2023-04-16T07:54:39.603Z,42.93
2023-04-16T07:57:05.776Z,49.13
2023-04-16T07:59:31.985Z,43.73
2023-04-16T08:01:58.276Z,44.87
2023-04-16T08:04:25.746Z,41.70
2023-04-16T08:06:52.860Z,39.30
2023-04-16T08:09:19.129Z,48.90
2023-04-16T08:11:45.948Z,45.00
2023-04-16T08:14:12.034Z,40.80
2023-04-16T08:16:39.725Z,49.10
2023-04-16T08:19:06.062Z,47.40
2023-04-16T08:21:32.322Z,43.53
2023-04-16T08:23:58.501Z,47.67
2023-04-16T08:26:24.726Z,45.10
2023-04-16T08:28:51.475Z,48.47
2023-04-16T08:31:17.613Z,43.90
2023-04-16T08:33:43.798Z,45.83
2023-04-16T08:36:10.037Z,41.80
2023-04-16T08:38:36.169Z,42.13
2023-04-16T08:41:03.544Z,45.77
2023-04-16T08:43:30.505Z,48.70
2023-04-16T08:45:57.364Z,39.23
2023-04-16T08:48:24.151Z,36.60
2023-04-16T08:50:52.274Z,47.73
2023-04-16T08:53:22.526Z,38.77
2023-04-16T08:55:50.183Z,44.13
2023-04-16T08:58:19.098Z,40.03
2023-04-16T09:00:45.677Z,39.67
2023-04-16T09:03:12.965Z,37.90
2023-04-16T09:05:39.329Z,36.80
2023-04-16T09:08:06.257Z,29.80
2023-04-16T09:10:32.642Z,34.27
2023-04-16T09:12:58.784Z,42.20
2023-04-16T09:15:25.438Z,35.33
2023-04-16T09:17:52.069Z,43.83
2023-04-16T09:20:19.758Z,32.40
2023-04-16T09:22:46.216Z,35.87
2023-04-16T09:25:13.134Z,37.17
2023-04-16T09:27:41.485Z,31.83
2023-04-16T09:30:23.167Z,32.20
2023-04-16T09:32:50.639Z,31.53
2023-04-16T09:35:18.774Z,30.63
2023-04-16T09:37:54.720Z,30.70
2023-04-16T09:40:24.616Z,32.23
2023-04-16T09:42:51.701Z,33.53
2023-04-16T09:45:18.094Z,32.87
2023-04-16T09:47:45.434Z,32.47
2023-04-16T09:50:17.316Z,33.87
2023-04-16T09:52:47.221Z,30.17
2023-04-16T09:55:14.039Z,32.40
2023-04-16T09:57:40.362Z,32.10
2023-04-16T10:00:08.535Z,30.00
2023-04-16T10:02:38.151Z,32.73
2023-04-16T10:05:05.334Z,27.97
2023-04-16T10:07:34.455Z,29.70
2023-04-16T10:10:02.785Z,32.20
2023-04-16T10:12:30.088Z,29.60
2023-04-16T10:14:56.319Z,28.37
2023-04-16T10:17:23.009Z,28.10
2023-04-16T10:19:50.369Z,30.10
2023-04-16T10:22:16.640Z,34.77
2023-04-16T10:24:43.314Z,33.00
2023-04-16T10:27:10.366Z,34.00
2023-04-16T10:29:36.677Z,31.87
2023-04-16T10:32:03.185Z,32.50
2023-04-16T10:34:30.700Z,34.20
2023-04-16T10:36:56.832Z,39.77
2023-04-16T10:39:24.396Z,35.23
2023-04-16T10:41:51.126Z,29.27
2023-04-16T10:44:18.700Z,35.10
2023-04-16T10:46:48.558Z,31.93
2023-04-16T10:49:16.943Z,31.80
2023-04-16T10:51:52.242Z,27.90
2023-04-16T10:54:25.153Z,29.30
2023-04-16T10:56:51.699Z,22.60
2023-04-16T10:59:19.814Z,29.20
2023-04-16T11:01:47.179Z,32.10
2023-04-16T11:04:28.444Z,32.70
2023-04-16T11:07:03.018Z,33.00
2023-04-16T11:09:46.479Z,31.87
2023-04-16T11:12:13.697Z,29.93
2023-04-16T11:14:40.946Z,23.80
2023-04-16T11:17:07.256Z,26.83
2023-04-16T11:19:35.062Z,24.30
2023-04-16T11:22:01.614Z,27.23
2023-04-16T11:24:29.263Z,25.53
2023-04-16T11:26:56.867Z,25.10
2023-04-16T11:29:23.276Z,23.07
2023-04-16T11:31:51.561Z,25.37
2023-04-16T11:34:18.575Z,23.43
2023-04-16T11:36:45.246Z,26.30
2023-04-16T11:39:12.013Z,25.00
2023-04-16T11:41:42.444Z,27.10
2023-04-16T11:44:22.073Z,21.30
2023-04-16T11:46:48.870Z,21.83
2023-04-16T11:49:16.946Z,27.20
2023-04-16T11:51:44.476Z,21.47
2023-04-16T11:54:18.493Z,24.23
2023-04-16T11:56:46.435Z,22.67
2023-04-16T11:59:14.122Z,25.20
2023-04-16T12:01:42.040Z,24.60
2023-04-16T12:04:08.897Z,22.13
2023-04-16T12:06:36.272Z,24.37
2023-04-16T12:09:23.521Z,20.80
2023-04-16T12:11:49.954Z,24.87
2023-04-16T12:14:16.135Z,16.73
2023-04-16T12:16:42.348Z,17.90
2023-04-16T12:19:11.644Z,18.70
2023-04-16T12:21:39.692Z,20.03
2023-04-16T12:24:07.044Z,19.13
2023-04-16T12:26:38.188Z,18.73
2023-04-16T12:29:25.603Z,16.97
2023-04-16T12:31:52.698Z,16.97
2023-04-16T12:34:19.503Z,18.70
2023-04-16T12:36:47.534Z,16.60
2023-04-16T12:39:14.448Z,17.90
2023-04-16T12:41:41.605Z,18.40
2023-04-16T12:44:11.111Z,16.93
2023-04-16T12:46:38.739Z,15.47
2023-04-16T12:49:05.559Z,14.77
2023-04-16T12:51:32.330Z,15.60
2023-04-16T12:53:59.369Z,17.27
2023-04-16T12:56:25.650Z,18.10
2023-04-16T12:58:52.052Z,17.53
2023-04-16T13:01:18.421Z,18.13
2023-04-16T13:03:44.874Z,19.03
2023-04-16T13:06:11.543Z,15.37
2023-04-16T13:08:37.734Z,17.93
2023-04-16T13:11:04.610Z,15.67
2023-04-16T13:13:30.752Z,18.63
2023-04-16T13:15:56.918Z,18.57
2023-04-16T13:18:24.018Z,16.07
2023-04-16T13:20:50.130Z,18.40
2023-04-16T13:23:16.563Z,16.57
2023-04-16T13:25:42.676Z,14.80
2023-04-16T13:28:09.737Z,16.17
2023-04-16T13:30:36.154Z,15.83
2023-04-16T13:33:02.343Z,18.43
2023-04-16T13:35:28.908Z,14.67
2023-04-16T13:37:55.094Z,15.13
2023-04-16T13:40:21.373Z,16.40
2023-04-16T13:42:47.510Z,16.27
2023-04-16T13:45:14.381Z,16.00
2023-04-16T13:47:41.138Z,17.90
2023-04-16T13:50:07.844Z,15.70
2023-04-16T13:52:33.981Z,18.17
2023-04-16T13:55:00.844Z,17.60
2023-04-16T13:57:27.677Z,19.63
2023-04-16T13:59:53.875Z,16.97
2023-04-16T14:02:20.733Z,20.50
2023-04-16T14:04:46.930Z,18.20
2023-04-16T14:07:14.378Z,18.87
2023-04-16T14:09:40.668Z,16.93
2023-04-16T14:12:06.906Z,18.93
2023-04-16T14:14:33.011Z,18.30
2023-04-16T14:16:59.268Z,20.67
2023-04-16T14:19:26.052Z,19.30
2023-04-16T14:21:52.510Z,18.70
2023-04-16T14:24:18.794Z,17.37
2023-04-16T14:26:44.953Z,18.87
2023-04-16T14:29:11.262Z,22.77
2023-04-16T14:31:37.589Z,24.70
2023-04-16T14:34:03.790Z,19.97
2023-04-16T14:36:30.602Z,21.17
2023-04-16T14:38:56.832Z,20.60
2023-04-16T14:41:22.934Z,133.97
2023-04-16T14:43:49.045Z,23.57
2023-04-16T14:46:16.752Z,19.07
2023-04-16T14:48:43.042Z,20.00
2023-04-16T14:51:09.362Z,22.47
2023-04-16T14:53:37.035Z,23.00
2023-04-16T14:56:03.361Z,18.83
2023-04-16T14:58:29.530Z,17.43
2023-04-16T15:00:55.885Z,22.30
2023-04-16T15:03:22.287Z,20.97
2023-04-16T15:05:54.116Z,19.00
2023-04-16T15:08:20.434Z,21.90
2023-04-16T15:10:47.169Z,17.63
2023-04-16T15:13:13.289Z,17.50
2023-04-16T15:15:39.445Z,20.23
2023-04-16T15:18:05.949Z,19.67
2023-04-16T15:20:32.092Z,19.70
2023-04-16T15:22:58.214Z,16.00
2023-04-16T15:25:24.803Z,19.80
2023-04-16T15:27:51.618Z,19.67
2023-04-16T15:30:18.058Z,16.27
2023-04-16T15:32:44.661Z,18.70
2023-04-16T15:35:12.483Z,15.80
2023-04-16T15:37:38.845Z,15.13
2023-04-16T15:40:07.045Z,17.27
2023-04-16T15:42:34.433Z,17.30
2023-04-16T15:45:01.762Z,13.57
2023-04-16T15:47:28.517Z,19.33
2023-04-16T15:49:54.662Z,17.57
2023-04-16T15:52:21.127Z,16.43
2023-04-16T15:54:47.540Z,14.07
2023-04-16T15:57:13.717Z,13.63
2023-04-16T15:59:40.900Z,18.13
2023-04-16T16:02:07.970Z,13.00
2023-04-16T16:04:34.393Z,19.40
2023-04-16T16:07:02.107Z,16.90
2023-04-16T16:09:29.121Z,17.53
2023-04-16T16:11:57.179Z,17.27
2023-04-16T16:14:23.461Z,12.23
2023-04-16T16:16:50.089Z,17.97
2023-04-16T16:19:17.021Z,14.17
2023-04-16T16:21:43.165Z,14.37
2023-04-16T16:24:09.376Z,16.43
2023-04-16T16:26:35.561Z,16.23
2023-04-16T16:29:01.728Z,18.50
2023-04-16T16:31:27.888Z,17.63
2023-04-16T16:33:54.046Z,14.63
2023-04-16T16:36:21.021Z,16.40
2023-04-16T16:38:47.362Z,17.43
2023-04-16T16:41:13.597Z,21.83
2023-04-16T16:43:39.864Z,19.40
2023-04-16T16:46:06.635Z,24.90
2023-04-16T16:48:32.938Z,22.57
2023-04-16T16:50:59.057Z,17.23
2023-04-16T16:53:26.479Z,28.10
2023-04-16T16:55:52.934Z,31.50
2023-04-16T16:58:20.044Z,28.33
2023-04-16T17:00:46.662Z,38.93
2023-04-16T17:03:13.173Z,31.83
2023-04-16T17:05:39.854Z,34.43
2023-04-16T17:08:06.274Z,34.40
2023-04-16T17:10:33.161Z,29.63
2023-04-16T17:12:59.307Z,32.13
2023-04-16T17:15:25.609Z,28.00
2023-04-16T17:17:51.819Z,31.43
2023-04-16T17:20:19.194Z,32.90
2023-04-16T17:22:45.351Z,24.50
2023-04-16T17:25:12.029Z,25.77
2023-04-16T17:27:38.823Z,23.67
2023-04-16T17:30:06.639Z,30.90
2023-04-16T17:32:33.026Z,26.47
2023-04-16T17:35:00.861Z,27.97
2023-04-16T17:37:27.404Z,26.33
2023-04-16T17:39:54.312Z,33.60
2023-04-16T17:42:20.451Z,30.17
2023-04-16T17:44:47.360Z,27.50
2023-04-16T17:47:13.500Z,26.57
2023-04-16T17:49:40.168Z,31.53
2023-04-16T17:52:06.574Z,33.47
2023-04-16T17:54:32.710Z,39.73
2023-04-16T17:56:58.866Z,38.63
2023-04-16T17:59:25.255Z,28.80
2023-04-16T18:01:52.172Z,28.93
2023-04-16T18:04:19.210Z,33.23
2023-04-16T18:06:45.943Z,35.00
2023-04-16T18:09:13.478Z,41.00
2023-04-16T18:11:39.651Z,37.07
2023-04-16T18:14:05.776Z,36.83
2023-04-16T18:16:32.176Z,38.30
2023-04-16T18:18:59.106Z,41.37
2023-04-16T18:21:25.523Z,39.30
2023-04-16T18:23:51.631Z,39.83
2023-04-16T18:26:20.398Z,42.50
2023-04-16T18:28:47.239Z,48.17
2023-04-16T18:31:13.802Z,43.67
2023-04-16T18:33:55.539Z,43.33
2023-04-16T18:36:24.022Z,42.53
2023-04-16T18:39:15.152Z,45.20
2023-04-16T18:41:36.814Z,49.50
2023-04-16T18:44:03.183Z,43.67
2023-04-16T18:46:29.396Z,45.00
2023-04-16T18:48:55.606Z,45.73
2023-04-16T18:51:22.625Z,48.67
2023-04-16T18:53:49.837Z,39.97
2023-04-16T18:56:16.361Z,41.57
2023-04-16T18:58:42.482Z,46.73
2023-04-16T19:01:12.096Z,40.70
2023-04-16T19:03:38.705Z,46.37
2023-04-16T19:06:05.386Z,45.10
2023-04-16T19:08:31.548Z,44.97
2023-04-16T19:10:58.354Z,51.57
2023-04-16T19:13:24.578Z,44.97
2023-04-16T19:15:50.844Z,41.07
2023-04-16T19:18:17.223Z,40.40
2023-04-16T19:20:43.389Z,43.30
2023-04-16T19:23:09.557Z,52.33
2023-04-16T19:25:35.830Z,39.10
2023-04-16T19:28:03.012Z,39.37
2023-04-16T19:30:29.484Z,40.60
2023-04-16T19:32:55.760Z,45.27
2023-04-16T19:35:22.611Z,43.77
2023-04-16T19:37:49.672Z,43.37
2023-04-16T19:40:16.088Z,42.83
2023-04-16T19:42:44.646Z,46.17
2023-04-16T19:45:11.536Z,43.53
2023-04-16T19:47:37.894Z,45.23
2023-04-16T19:50:05.051Z,38.20
2023-04-16T19:52:36.488Z,43.07
2023-04-16T19:55:02.889Z,41.87
2023-04-16T19:57:29.065Z,51.67
2023-04-16T19:59:55.336Z,46.50
2023-04-16T20:02:22.404Z,38.10
2023-04-16T20:04:48.676Z,38.63
2023-04-16T20:07:14.825Z,40.70
2023-04-16T20:09:41.157Z,41.13
2023-04-16T20:12:07.351Z,41.00
2023-04-16T20:14:33.464Z,40.53
2023-04-16T20:17:01.031Z,42.60
2023-04-16T20:19:32.549Z,36.47
2023-04-16T20:21:58.674Z,36.83
2023-04-16T20:24:26.000Z,39.37
2023-04-16T20:26:52.130Z,44.33
2023-04-16T20:29:18.258Z,39.50
2023-04-16T20:31:45.353Z,42.07
2023-04-16T20:34:11.584Z,41.83
2023-04-16T20:36:38.359Z,39.57
2023-04-16T20:39:06.328Z,38.63
2023-04-16T20:41:33.245Z,32.03
2023-04-16T20:44:04.351Z,40.67
2023-04-16T20:46:35.374Z,32.07
2023-04-16T20:49:01.830Z,37.83
2023-04-16T20:51:28.505Z,43.03
2023-04-16T20:53:55.543Z,33.10
2023-04-16T20:56:21.713Z,43.53
2023-04-16T20:58:47.853Z,42.90
2023-04-16T21:01:14.145Z,40.17
2023-04-16T21:03:40.662Z,42.17
2023-04-16T21:06:07.329Z,40.17
2023-04-16T21:08:33.849Z,38.07
2023-04-16T21:11:01.663Z,35.70
2023-04-16T21:13:27.846Z,35.97
2023-04-16T21:15:54.028Z,43.23
2023-04-16T21:18:20.259Z,54.87
2023-04-16T21:20:46.394Z,50.73
2023-04-16T21:23:12.567Z,49.23
2023-04-16T21:25:38.802Z,46.60
2023-04-16T21:28:05.938Z,46.87
2023-04-16T21:30:32.100Z,52.47
2023-04-16T21:32:58.464Z,48.03
2023-04-16T21:35:24.684Z,45.13
2023-04-16T21:37:50.907Z,42.30
2023-04-16T21:40:17.617Z,46.17
2023-04-16T21:42:43.782Z,44.80
2023-04-16T21:45:10.836Z,49.53
2023-04-16T21:47:37.446Z,47.03
2023-04-16T21:50:04.290Z,45.50
2023-04-16T21:52:31.953Z,46.93
2023-04-16T21:54:58.411Z,50.53
2023-04-16T21:57:24.688Z,52.27
2023-04-16T21:59:51.064Z,46.23
2023-04-16T22:02:17.933Z,50.77
2023-04-16T22:04:44.305Z,57.40
2023-04-16T22:07:10.991Z,54.40
2023-04-16T22:09:37.118Z,57.33
2023-04-16T22:12:06.018Z,49.13
2023-04-16T22:14:34.320Z,52.50
2023-04-16T22:17:00.984Z,63.03
2023-04-16T22:19:27.879Z,59.70
2023-04-16T22:21:54.048Z,55.53
2023-04-16T22:24:20.536Z,58.23
2023-04-16T22:26:46.790Z,63.60
2023-04-16T22:29:13.338Z,58.87
2023-04-16T22:31:39.620Z,65.13
2023-04-16T22:34:05.860Z,56.97
2023-04-16T22:36:32.640Z,62.57
2023-04-16T22:38:58.768Z,62.97
2023-04-16T22:41:25.024Z,68.03
2023-04-16T22:43:52.474Z,71.17
2023-04-16T22:46:19.093Z,67.73
2023-04-16T22:48:45.281Z,62.50
2023-04-16T22:51:11.403Z,73.23
2023-04-16T22:53:38.210Z,65.27
2023-04-16T22:56:04.886Z,67.83
2023-04-16T22:58:31.043Z,75.33
2023-04-16T23:00:58.553Z,68.37
2023-04-16T23:03:24.892Z,74.67
2023-04-16T23:05:51.246Z,70.13
2023-04-16T23:08:17.483Z,72.87
2023-04-16T23:10:44.347Z,73.10
2023-04-16T23:13:10.477Z,64.23
2023-04-16T23:15:36.637Z,61.53
2023-04-16T23:18:03.034Z,64.23
2023-04-16T23:20:29.218Z,71.07
2023-04-16T23:22:55.361Z,69.83
2023-04-16T23:25:21.624Z,69.47
2023-04-16T23:27:48.355Z,74.30
2023-04-16T23:30:14.953Z,71.87
2023-04-16T23:32:41.133Z,71.13
2023-04-16T23:35:08.592Z,78.40
2023-04-16T23:37:34.758Z,75.37
2023-04-16T23:40:00.912Z,74.77
2023-04-16T23:42:27.065Z,73.17
2023-04-16T23:44:53.808Z,73.97
2023-04-16T23:47:19.965Z,79.10
2023-04-16T23:49:46.116Z,70.70
2023-04-16T23:52:12.278Z,73.97
2023-04-16T23:54:38.399Z,73.07
2023-04-16T23:57:04.539Z,66.80
2023-04-16T23:59:30.680Z,65.57
